METAR Data
IDs: Format: Raw Decoded Include TAF

Data at: 1346 UTC 26 Feb 2021

LIBD 261320Z 01005KT 340V060 8000 NSC 16/08 Q1026